LEWISTON (LEW)

Elevation: 1870' · TRINITY R basin · Operator: US Bureau of Reclamation

Provisional data, subject to change.
Query executed Wednesday at 23:00:26   clock

Select a sensor type for a plot of data.
Note: Reservoir Flows are daily averages.

Earlier

Date RES ELE    STORAGE    RES CHG    OUTFLOW    INFLOW    EVAP    RIV REL    SPILL    DIS PWR   
 FEET   AF   AF   CFS   CFS   CFS   CFS   CFS   CFS  
06/30/2015 1900.60 13617 -548 2310 2042 8 629 499 0
07/01/2015 1901.70 14435 818 1375 1794 7 458 328 0
07/02/2015 1901.03 13933 -502 2186 1942 9 454 324 0
07/03/2015 1900.47 13521 -412 1971 1769 6 451 321 0
07/04/2015 1900.50 13543 22 1732 1749 6 450 320 0
07/05/2015 1900.27 13374 -169 1792 1716 9 449 319 0
07/06/2015 1900.30 13396 22 1731 1750 8 450 320 0
07/07/2015 1900.42 13484 88 1823 1872 5 449 319 0
07/08/2015 1900.84 13793 309 1654 1817 7 457 318 0
07/09/2015 1900.41 13477 -316 1795 1647 11 461 311 0
07/10/2015 1900.35 13433 -44 1715 1694 1 458 308 0
07/11/2015 1900.70 13690 257 1548 1682 4 458 308 0
07/12/2015 1900.54 13572 -- 1532 1478 5 458 308 0
07/13/2015 1900.57 13595 23 1711 1727 4 458 308 0
07/14/2015 1900.54 13572 -23 1666 1660 6 459 309 0
07/15/2015 1900.48 13528 -44 1742 1726 6 460 310 0
07/16/2015 1900.58 13602 74 1697 1740 6 459 309 0
07/17/2015 1900.47 13521 -81 1803 1768 6 461 311 0
07/18/2015 1900.77 13742 221 1632 1751 8 459 309 0
07/19/2015 1901.03 13933 191 1674 1779 9 462 312 0
07/20/2015 1900.81 13771 -162 1859 1784 7 462 312 0
07/21/2015 1900.56 13587 -184 1795 1709 7 458 308 0
07/22/2015 1900.63 13639 52 1839 1871 6 460 310 0
07/23/2015 1900.68 13675 36 2543 2568 7 462 312 0
07/24/2015 1900.48 13528 -147 2035 1967 6 462 312 0
07/25/2015 1900.46 13514 -14 1976 1976 7 462 312 0
07/26/2015 1900.59 13609 95 1840 1895 7 462 312 0
07/27/2015 1900.57 13595 -14 1973 1973 7 465 315 0
07/28/2015 1900.73 13712 117 1925 1992 8 462 312 0
07/29/2015 -- -- -- -- -- -- -- -- --

Later | Latest

Warning! This data is preliminary and subject to revision.

Show LEW Map | Plot LEW Data | 1 Month LEW Data | Real-Time LEW Data | LEW Info